Time;durP1;ratioP1;P1;durP2;ratioP2;P2;SDS_P1;SDS_P2;PMS_P1;PMS_P2;Temp;Humidity;BMP_temperature;BMP_pressure;BME280_temperature;BME280_humidity;BME280_pressure;Samples;Min_cycle;Max_cycle;Signal;HPM_P1;HPM_P2
2022/06/07 00:02:33;;;;;;;;;;;13.50;99.90;;;;;;10247257;28;83294;-54
2022/06/07 00:07:34;;;;;;;;;;;13.50;99.90;;;;;;10245391;28;83390;-57
2022/06/07 00:12:34;;;;;;;;;;;13.40;99.90;;;;;;10247828;28;83535;-57
2022/06/07 00:17:35;;;;;;;;;;;13.40;99.90;;;;;;10245838;28;83306;-60
2022/06/07 00:22:36;;;;;;;;;;;13.40;99.90;;;;;;10226210;28;84049;-56
2022/06/07 00:27:37;;;;;;;;;;;13.40;99.90;;;;;;10207470;28;83986;-59
2022/06/07 00:32:39;;;;;;;;;;;13.40;99.90;;;;;;10205096;28;85434;-58
2022/06/07 00:37:39;;;;;;;;;;;13.40;99.90;;;;;;10205834;28;85162;-58
2022/06/07 00:42:41;;;;;;;;;;;13.50;99.90;;;;;;10206434;28;84092;-60
2022/06/07 00:47:42;;;;;;;;;;;13.50;99.90;;;;;;10206292;28;84337;-58
2022/06/07 00:52:42;;;;;;;;;;;13.50;99.90;;;;;;10219132;28;84104;-57
2022/06/07 00:57:44;;;;;;;;;;;13.50;99.90;;;;;;10206478;28;84009;-57
2022/06/07 01:02:51;;;;;;;;;;;13.40;99.90;;;;;;10204885;28;86209;-55
2022/06/07 01:13:19;;;;;;;;;;;13.40;99.90;;;;;;10237743;28;85028;-57
2022/06/07 01:18:21;;;;;;;;;;;13.50;99.90;;;;;;10249495;28;86000;-60
2022/06/07 01:23:21;;;;;;;;;;;13.40;99.90;;;;;;10234873;28;86163;-57
2022/06/07 01:28:24;;;;;;;;;;;13.50;99.90;;;;;;10210119;28;85302;-58
2022/06/07 01:33:24;;;;;;;;;;;13.50;99.90;;;;;;10211167;28;85140;-57
2022/06/07 01:38:25;;;;;;;;;;;13.50;99.90;;;;;;10236873;28;83973;-60
2022/06/07 01:43:26;;;;;;;;;;;13.60;99.90;;;;;;10251575;28;83132;-57
2022/06/07 01:48:26;;;;;;;;;;;13.60;99.90;;;;;;10249983;28;85639;-57
2022/06/07 01:53:27;;;;;;;;;;;13.70;99.90;;;;;;10247907;28;85895;-57
2022/06/07 01:58:28;;;;;;;;;;;13.70;99.90;;;;;;10250224;28;84323;-56
2022/06/07 02:03:28;;;;;;;;;;;13.70;99.90;;;;;;10250330;28;85551;-56
2022/06/07 02:08:29;;;;;;;;;;;13.70;99.90;;;;;;10213577;28;85300;-60
2022/06/07 02:13:30;;;;;;;;;;;13.70;99.90;;;;;;10209322;28;86131;-59
2022/06/07 02:18:31;;;;;;;;;;;13.70;99.90;;;;;;10208955;28;85433;-57
2022/06/07 02:23:37;;;;;;;;;;;13.70;99.90;;;;;;10210320;28;86470;-57
2022/06/07 02:28:39;;;;;;;;;;;13.70;99.90;;;;;;10208160;28;86098;-58
2022/06/07 02:33:40;;;;;;;;;;;13.80;99.90;;;;;;10208932;28;86222;-58
2022/06/07 02:38:41;;;;;;;;;;;13.70;99.90;;;;;;10209309;28;84982;-57
2022/06/07 02:43:41;;;;;;;;;;;13.60;99.90;;;;;;10208501;28;86178;-56
2022/06/07 02:48:42;;;;;;;;;;;13.50;99.90;;;;;;10200684;28;86025;-57
2022/06/07 02:53:44;;;;;;;;;;;13.50;99.90;;;;;;10214372;28;84911;-57
2022/06/07 02:58:45;;;;;;;;;;;13.40;99.90;;;;;;10248208;28;84958;-58
2022/06/07 03:03:46;;;;;;;;;;;13.40;99.90;;;;;;10211168;28;85718;-56
2022/06/07 03:08:48;;;;;;;;;;;13.40;99.90;;;;;;10207245;28;84124;-57
2022/06/07 03:13:49;;;;;;;;;;;13.40;99.90;;;;;;10209328;28;84407;-56
2022/06/07 03:18:56;;;;;;;;;;;13.50;99.90;;;;;;10195426;28;85814;-60
2022/06/07 03:23:58;;;;;;;;;;;13.50;99.90;;;;;;10204423;28;84058;-57
2022/06/07 03:28:58;;;;;;;;;;;13.50;99.90;;;;;;10203274;28;85130;-59
2022/06/07 03:33:59;;;;;;;;;;;13.60;99.90;;;;;;10198879;28;85568;-58
2022/06/07 03:39:07;;;;;;;;;;;13.60;99.90;;;;;;10205824;28;85991;-60
2022/06/07 03:44:10;;;;;;;;;;;13.60;99.90;;;;;;10217491;28;83470;-58
2022/06/07 03:49:15;;;;;;;;;;;13.70;99.90;;;;;;10246492;28;85187;-57
2022/06/07 03:54:16;;;;;;;;;;;13.80;99.90;;;;;;10245097;28;86371;-58
2022/06/07 03:59:20;;;;;;;;;;;13.80;99.90;;;;;;10246654;28;84342;-59
2022/06/07 04:04:21;;;;;;;;;;;13.80;99.90;;;;;;10246979;28;83916;-54
2022/06/07 04:09:22;;;;;;;;;;;13.90;99.90;;;;;;10203699;28;83669;-57
2022/06/07 04:14:23;;;;;;;;;;;13.90;99.90;;;;;;10208156;28;83448;-60
2022/06/07 04:19:24;;;;;;;;;;;13.90;99.90;;;;;;10205563;28;84825;-58
2022/06/07 04:24:25;;;;;;;;;;;14.00;99.90;;;;;;10206948;28;84240;-56
2022/06/07 04:29:26;;;;;;;;;;;14.10;99.90;;;;;;10224080;28;84986;-56
2022/06/07 04:34:29;;;;;;;;;;;14.10;99.90;;;;;;10217451;28;84981;-57
2022/06/07 04:39:31;;;;;;;;;;;14.20;99.90;;;;;;10210430;28;85229;-60
2022/06/07 04:44:37;;;;;;;;;;;14.20;99.90;;;;;;10204052;28;85262;-56
2022/06/07 04:49:39;;;;;;;;;;;14.20;99.90;;;;;;10219698;28;84941;-60
2022/06/07 04:54:41;;;;;;;;;;;14.30;99.90;;;;;;10191495;28;85953;-57
2022/06/07 04:59:43;;;;;;;;;;;14.30;99.90;;;;;;10190524;28;86158;-56
2022/06/07 05:04:43;;;;;;;;;;;14.40;99.90;;;;;;10192221;28;83321;-55
2022/06/07 05:09:53;;;;;;;;;;;14.40;80.70;;;;;;10193062;28;83732;-58
2022/06/07 05:15:03;;;;;;;;;;;14.50;80.50;;;;;;10192467;28;83399;-59
2022/06/07 05:20:10;;;;;;;;;;;14.60;11.90;;;;;;10174228;28;85217;-58
2022/06/07 05:25:11;;;;;;;;;;;14.70;1.00;;;;;;10209949;28;85141;-56
2022/06/07 05:30:16;;;;;;;;;;;14.70;1.00;;;;;;10210668;28;85989;-56
2022/06/07 05:35:26;;;;;;;;;;;14.70;30.50;;;;;;10234830;28;85323;-53
2022/06/07 05:40:41;;;;;;;;;;;14.70;1.00;;;;;;10225987;28;86250;-59
2022/06/07 05:45:50;;;;;;;;;;;14.70;22.60;;;;;;10233410;28;85963;-55
2022/06/07 05:50:54;;;;;;;;;;;14.90;1.90;;;;;;10226412;28;86036;-56
2022/06/07 05:56:14;;;;;;;;;;;14.90;1.00;;;;;;10213191;28;85383;-56
2022/06/07 06:01:16;;;;;;;;;;;15.00;1.00;;;;;;10221241;23;86120;-49
2022/06/07 06:06:21;;;;;;;;;;;15.10;1.00;;;;;;10233726;28;85237;-50
2022/06/07 06:11:26;;;;;;;;;;;15.20;1.00;;;;;;10247544;28;85005;-47
2022/06/07 06:16:40;;;;;;;;;;;15.20;1.00;;;;;;10248595;28;84025;-49
2022/06/07 06:21:45;;;;;;;;;;;15.40;1.00;;;;;;10247424;28;86232;-48
2022/06/07 06:26:47;;;;;;;;;;;15.60;1.00;;;;;;10247453;28;86084;-48
2022/06/07 06:31:53;;;;;;;;;;;15.70;1.00;;;;;;10232230;28;85109;-51
2022/06/07 06:36:55;;;;;;;;;;;15.90;1.00;;;;;;10230948;28;84782;-50
2022/06/07 06:42:00;;;;;;;;;;;15.90;1.00;;;;;;10246881;28;85101;-45
2022/06/07 06:47:17;;;;;;;;;;;16.00;1.00;;;;;;10246787;28;86261;-49
2022/06/07 06:52:20;;;;;;;;;;;16.10;1.00;;;;;;10248343;28;85223;-45
2022/06/07 06:57:21;;;;;;;;;;;16.20;1.00;;;;;;10246562;28;85844;-47
2022/06/07 07:02:22;;;;;;;;;;;16.30;1.00;;;;;;10247101;28;85186;-47
2022/06/07 07:07:35;;;;;;;;;;;16.20;1.00;;;;;;10245877;28;85871;-49
2022/06/07 07:12:36;;;;;;;;;;;16.40;1.00;;;;;;10245907;28;86024;-50
2022/06/07 07:17:40;;;;;;;;;;;16.40;1.00;;;;;;10230228;28;85211;-49
2022/06/07 07:22:41;;;;;;;;;;;16.20;1.00;;;;;;10232795;28;85123;-49
2022/06/07 07:27:44;;;;;;;;;;;16.30;1.00;;;;;;10242650;28;85375;-48
2022/06/07 07:32:46;;;;;;;;;;;16.20;1.00;;;;;;10245204;28;86054;-48
2022/06/07 07:37:47;;;;;;;;;;;16.20;1.00;;;;;;10245169;28;85711;-46
2022/06/07 07:42:49;;;;;;;;;;;16.20;1.00;;;;;;10245211;28;86225;-48
2022/06/07 07:48:03;;;;;;;;;;;16.40;1.00;;;;;;10244820;28;86497;-51
2022/06/07 07:53:09;;;;;;;;;;;16.60;1.00;;;;;;10245236;28;84134;-48
2022/06/07 07:58:11;;;;;;;;;;;16.70;1.00;;;;;;10243600;28;85023;-49
2022/06/07 08:03:14;;;;;;;;;;;17.20;1.00;;;;;;10228845;28;85576;-47
2022/06/07 08:08:19;;;;;;;;;;;17.50;1.00;;;;;;10246736;28;83804;-53
2022/06/07 08:13:19;;;;;;;;;;;17.70;1.00;;;;;;10247668;28;84045;-50
2022/06/07 08:18:23;;;;;;;;;;;17.60;1.00;;;;;;10246836;28;83977;-48
2022/06/07 08:23:23;;;;;;;;;;;18.00;1.00;;;;;;10247408;28;83694;-48
2022/06/07 08:28:24;;;;;;;;;;;18.20;1.00;;;;;;10246667;28;83768;-48
2022/06/07 08:38:44;;;;;;;;;;;18.90;99.90;;;;;;10247403;28;83621;-45
2022/06/07 08:43:45;;;;;;;;;;;18.60;99.90;;;;;;10245752;28;83847;-50
2022/06/07 08:48:46;;;;;;;;;;;18.30;1.00;;;;;;10246338;28;83939;-48
2022/06/07 08:53:50;;;;;;;;;;;18.20;1.00;;;;;;10245100;28;85983;-48
2022/06/07 08:58:54;;;;;;;;;;;18.20;1.00;;;;;;10245077;28;84153;-48
2022/06/07 09:03:59;;;;;;;;;;;18.20;1.00;;;;;;10246105;28;83687;-45
2022/06/07 09:08:59;;;;;;;;;;;18.30;1.00;;;;;;10245925;28;84139;-47
2022/06/07 09:14:04;;;;;;;;;;;18.30;1.00;;;;;;10244777;28;83636;-51
2022/06/07 09:19:14;;;;;;;;;;;18.50;99.90;;;;;;10244112;28;83929;-51
2022/06/07 09:24:33;;;;;;;;;;;18.80;99.90;;;;;;10244996;28;84264;-50
2022/06/07 09:29:35;;;;;;;;;;;19.10;99.90;;;;;;10244080;28;83587;-48
2022/06/07 09:34:37;;;;;;;;;;;19.20;99.90;;;;;;10243848;28;83866;-49
2022/06/07 09:39:39;;;;;;;;;;;19.50;99.90;;;;;;10248441;28;84107;-51
2022/06/07 09:44:54;;;;;;;;;;;19.80;99.90;;;;;;10252141;28;83499;-49
2022/06/07 09:49:59;;;;;;;;;;;20.50;99.90;;;;;;10251344;28;83680;-51
2022/06/07 09:55:17;;;;;;;;;;;21.10;1.00;;;;;;10251566;28;83427;-54
2022/06/07 10:00:23;;;;;;;;;;;21.00;1.00;;;;;;10250896;28;84157;-48
2022/06/07 10:05:27;;;;;;;;;;;21.20;1.00;;;;;;10265399;28;85220;-51
2022/06/07 10:10:33;;;;;;;;;;;21.00;1.00;;;;;;10250636;28;83887;-48
2022/06/07 10:15:40;;;;;;;;;;;21.30;99.90;;;;;;10250537;28;84161;-48
2022/06/07 10:20:44;;;;;;;;;;;21.50;99.90;;;;;;10250183;28;83905;-48
2022/06/07 10:25:45;;;;;;;;;;;21.90;99.90;;;;;;10250412;28;84092;-48
2022/06/07 10:30:58;;;;;;;;;;;22.00;92.00;;;;;;10249212;28;83899;-47
2022/06/07 10:36:02;;;;;;;;;;;22.00;1.00;;;;;;10250015;28;83992;-46
2022/06/07 10:41:06;;;;;;;;;;;22.60;99.90;;;;;;10249602;28;84134;-47
2022/06/07 10:46:08;;;;;;;;;;;22.70;1.00;;;;;;10250086;28;83993;-47
2022/06/07 10:56:40;;;;;;;;;;;22.00;1.00;;;;;;10250376;28;83201;-52
2022/06/07 11:01:46;;;;;;;;;;;22.30;99.90;;;;;;10248607;28;85772;-48
2022/06/07 11:12:23;;;;;;;;;;;21.80;99.90;;;;;;10249014;28;83256;-45
2022/06/07 11:17:27;;;;;;;;;;;21.60;1.00;;;;;;10248437;28;83994;-44
2022/06/07 11:22:36;;;;;;;;;;;21.30;1.00;;;;;;10247952;28;83803;-45
2022/06/07 11:27:37;;;;;;;;;;;21.30;1.00;;;;;;10247932;28;83939;-56
2022/06/07 11:33:10;;;;;;;;;;;20.90;1.00;;;;;;10248042;28;83212;-50
2022/06/07 11:38:16;;;;;;;;;;;20.80;1.00;;;;;;10224634;28;84056;-48
2022/06/07 11:43:36;;;;;;;;;;;20.60;65.70;;;;;;10246180;28;86218;-49
2022/06/07 11:48:36;;;;;;;;;;;20.30;99.90;;;;;;10247064;28;83801;-51
2022/06/07 11:53:38;;;;;;;;;;;20.60;1.00;;;;;;10247479;28;83327;-50
2022/06/07 11:58:52;;;;;;;;;;;21.00;1.00;;;;;;10272324;22;84012;-48
2022/06/07 12:04:06;;;;;;;;;;;20.90;83.60;;;;;;10285282;28;83728;-49
2022/06/07 12:09:13;;;;;;;;;;;20.90;99.90;;;;;;10284922;28;84220;-49
2022/06/07 12:14:17;;;;;;;;;;;21.90;27.90;;;;;;10286857;28;83817;-47
2022/06/07 12:19:21;;;;;;;;;;;22.00;1.00;;;;;;10288026;28;84078;-48
2022/06/07 12:24:21;;;;;;;;;;;21.90;1.00;;;;;;10287531;28;84185;-47
2022/06/07 12:29:26;;;;;;;;;;;21.50;1.00;;;;;;10288197;28;83753;-51
2022/06/07 12:34:29;;;;;;;;;;;21.40;1.00;;;;;;10288796;28;83396;-46
2022/06/07 12:39:30;;;;;;;;;;;22.40;1.00;;;;;;10288342;28;84234;-48
2022/06/07 12:44:35;;;;;;;;;;;22.50;1.00;;;;;;10289516;28;83621;-48
2022/06/07 12:49:40;;;;;;;;;;;22.00;1.00;;;;;;10290336;28;84308;-49
2022/06/07 12:54:46;;;;;;;;;;;21.40;1.00;;;;;;10291827;28;84117;-46
2022/06/07 12:59:55;;;;;;;;;;;21.10;1.00;;;;;;10288798;28;84164;-47
2022/06/07 13:04:57;;;;;;;;;;;21.20;1.00;;;;;;10290298;28;84333;-48
2022/06/07 13:09:59;;;;;;;;;;;21.40;1.00;;;;;;10288544;28;84099;-46
2022/06/07 13:15:00;;;;;;;;;;;21.70;99.90;;;;;;10293671;28;83844;-46
2022/06/07 13:20:02;;;;;;;;;;;22.50;99.90;;;;;;10294662;28;83691;-48
2022/06/07 13:25:19;;;;;;;;;;;23.70;1.00;;;;;;10294319;28;83789;-51
2022/06/07 13:30:20;;;;;;;;;;;24.80;1.00;;;;;;10293094;28;83623;-47
2022/06/07 13:35:26;;;;;;;;;;;25.80;1.00;;;;;;10292466;28;85552;-51
2022/06/07 13:40:29;;;;;;;;;;;25.70;99.90;;;;;;10293190;28;84983;-51
2022/06/07 13:45:29;;;;;;;;;;;26.10;99.90;;;;;;10293142;28;83397;-47
2022/06/07 13:56:07;;;;;;;;;;;26.70;95.90;;;;;;10292490;28;84230;-47
2022/06/07 14:01:09;;;;;;;;;;;24.80;99.90;;;;;;10292108;28;83804;-48
2022/06/07 14:06:39;;;;;;;;;;;24.00;1.00;;;;;;10292331;28;84040;-52
2022/06/07 14:11:39;;;;;;;;;;;23.30;1.00;;;;;;10279179;28;83468;-49
2022/06/07 14:17:00;;;;;;;;;;;23.20;99.90;;;;;;10291867;28;83924;-48
2022/06/07 14:22:09;;;;;;;;;;;23.40;99.90;;;;;;10291433;28;83795;-47
2022/06/07 14:27:21;;;;;;;;;;;22.90;1.00;;;;;;10289071;28;84267;-49
2022/06/07 14:32:26;;;;;;;;;;;22.50;1.00;;;;;;10250270;28;84915;-47
2022/06/07 14:37:28;;;;;;;;;;;22.10;99.90;;;;;;10263069;28;83866;-46
2022/06/07 14:42:28;;;;;;;;;;;21.80;1.00;;;;;;10275940;28;83922;-48
2022/06/07 14:47:29;;;;;;;;;;;21.80;1.00;;;;;;10267934;28;84709;-46
2022/06/07 14:52:29;;;;;;;;;;;21.70;99.90;;;;;;10272928;28;83950;-47
2022/06/07 14:57:30;;;;;;;;;;;21.70;99.90;;;;;;10283993;28;83870;-46
2022/06/07 15:02:32;;;;;;;;;;;21.90;1.00;;;;;;10301727;28;84115;-46
2022/06/07 15:07:36;;;;;;;;;;;21.90;1.00;;;;;;10297382;28;84179;-47
2022/06/07 15:12:36;;;;;;;;;;;22.20;1.00;;;;;;10272866;28;84886;-50
2022/06/07 15:17:45;;;;;;;;;;;22.10;1.00;;;;;;10278186;28;84138;-47
2022/06/07 15:22:46;;;;;;;;;;;22.20;1.00;;;;;;10280836;28;84101;-46
2022/06/07 15:27:46;;;;;;;;;;;22.20;1.00;;;;;;10282314;28;83807;-47
2022/06/07 15:32:48;;;;;;;;;;;22.10;1.00;;;;;;10285315;28;84825;-50
2022/06/07 15:37:49;;;;;;;;;;;21.90;76.20;;;;;;10278016;28;84028;-48
2022/06/07 15:42:53;;;;;;;;;;;21.90;99.90;;;;;;10280367;28;84145;-51
2022/06/07 15:48:07;;;;;;;;;;;21.90;1.00;;;;;;10286655;28;83958;-51
2022/06/07 15:53:08;;;;;;;;;;;22.20;47.70;;;;;;10280953;28;84521;-46
2022/06/07 16:03:28;;;;;;;;;;;22.40;1.00;;;;;;10288024;28;85471;-49
2022/06/07 16:08:29;;;;;;;;;;;22.30;1.00;;;;;;10295758;28;84005;-47
2022/06/07 16:13:30;;;;;;;;;;;22.40;99.90;;;;;;10299300;28;85241;-49
2022/06/07 16:18:31;;;;;;;;;;;22.30;1.00;;;;;;10301920;28;83762;-46
2022/06/07 16:23:32;;;;;;;;;;;22.20;76.50;;;;;;10289052;28;83731;-50
2022/06/07 16:33:51;;;;;;;;;;;21.90;1.00;;;;;;10280221;28;83392;-51
2022/06/07 16:38:53;;;;;;;;;;;21.50;99.90;;;;;;10279560;28;86279;-49
2022/06/07 16:44:02;;;;;;;;;;;21.20;1.00;;;;;;10274925;28;83739;-48
2022/06/07 16:49:32;;;;;;;;;;;21.10;99.90;;;;;;10284522;28;85430;-52
2022/06/07 16:54:33;;;;;;;;;;;20.90;99.90;;;;;;10269823;28;83397;-48
2022/06/07 16:59:34;;;;;;;;;;;20.90;1.00;;;;;;10283408;28;83630;-50
2022/06/07 17:04:35;;;;;;;;;;;20.80;1.00;;;;;;10284102;28;84038;-47
2022/06/07 17:09:35;;;;;;;;;;;20.90;1.00;;;;;;10282303;28;84316;-46
2022/06/07 17:14:36;;;;;;;;;;;20.60;21.70;;;;;;10290788;28;84318;-49
2022/06/07 17:19:37;;;;;;;;;;;20.40;99.90;;;;;;10289236;28;84280;-51
2022/06/07 17:24:37;;;;;;;;;;;20.30;99.90;;;;;;10284488;28;84228;-50
2022/06/07 17:29:38;;;;;;;;;;;20.00;99.90;;;;;;10278349;28;84061;-50
2022/06/07 17:34:39;;;;;;;;;;;19.90;1.00;;;;;;10281351;28;83868;-53
2022/06/07 17:39:40;;;;;;;;;;;19.80;1.00;;;;;;10287774;28;84066;-50
2022/06/07 17:44:41;;;;;;;;;;;19.60;1.00;;;;;;10277696;28;84043;-47
2022/06/07 17:49:41;;;;;;;;;;;19.50;1.00;;;;;;10282029;28;84525;-50
2022/06/07 17:54:44;;;;;;;;;;;19.50;1.00;;;;;;10303135;28;84405;-48
2022/06/07 17:59:45;;;;;;;;;;;19.50;1.00;;;;;;10314152;23;83822;-54
2022/06/07 18:04:45;;;;;;;;;;;19.50;1.00;;;;;;10287323;28;84237;-53
2022/06/07 18:09:46;;;;;;;;;;;19.50;1.00;;;;;;10288401;28;84441;-54
2022/06/07 18:14:46;;;;;;;;;;;19.50;1.00;;;;;;10285841;28;83344;-50
2022/06/07 18:19:47;;;;;;;;;;;19.50;1.00;;;;;;10274953;28;83849;-48
2022/06/07 18:24:47;;;;;;;;;;;19.40;1.00;;;;;;10269276;28;86088;-51
2022/06/07 18:29:48;;;;;;;;;;;19.40;1.00;;;;;;10264208;28;83529;-54
2022/06/07 18:34:48;;;;;;;;;;;19.60;1.00;;;;;;10264578;28;83428;-52
2022/06/07 18:39:49;;;;;;;;;;;19.70;1.00;;;;;;10262274;28;83401;-48
2022/06/07 18:44:50;;;;;;;;;;;19.60;1.00;;;;;;10265634;28;83855;-53
2022/06/07 18:49:50;;;;;;;;;;;19.60;1.00;;;;;;10271962;28;83734;-51
2022/06/07 18:54:51;;;;;;;;;;;19.60;1.00;;;;;;10280047;28;84641;-53
2022/06/07 18:59:52;;;;;;;;;;;19.50;1.00;;;;;;10282097;28;83370;-52
2022/06/07 19:04:53;;;;;;;;;;;19.50;1.00;;;;;;10276759;28;83464;-53
2022/06/07 19:09:57;;;;;;;;;;;19.30;1.00;;;;;;10250520;28;83685;-51
2022/06/07 19:14:58;;;;;;;;;;;19.20;1.00;;;;;;10259575;28;83589;-55
2022/06/07 19:19:58;;;;;;;;;;;19.20;1.00;;;;;;10273869;28;85538;-53
2022/06/07 19:24:59;;;;;;;;;;;19.10;1.00;;;;;;10279294;28;83456;-54
2022/06/07 19:30:00;;;;;;;;;;;18.90;1.00;;;;;;10281658;28;83417;-50
2022/06/07 19:35:01;;;;;;;;;;;18.90;1.00;;;;;;10272255;28;86306;-52
2022/06/07 19:40:01;;;;;;;;;;;18.70;1.00;;;;;;10259750;28;84582;-55
2022/06/07 19:45:02;;;;;;;;;;;18.60;1.00;;;;;;10279834;28;84465;-51
2022/06/07 19:50:05;;;;;;;;;;;18.60;1.00;;;;;;10287725;28;84325;-50
2022/06/07 19:55:07;;;;;;;;;;;18.50;1.00;;;;;;10269198;28;85249;-50
2022/06/07 20:00:10;;;;;;;;;;;18.50;1.00;;;;;;10283493;28;83829;-52
2022/06/07 20:05:14;;;;;;;;;;;18.40;1.00;;;;;;10287365;28;83300;-50
2022/06/07 20:10:16;;;;;;;;;;;18.40;1.00;;;;;;10285488;28;84108;-53
2022/06/07 20:15:16;;;;;;;;;;;18.40;1.00;;;;;;10287665;28;83345;-50
2022/06/07 20:20:18;;;;;;;;;;;18.30;1.00;;;;;;10286290;28;83812;-48
2022/06/07 20:25:19;;;;;;;;;;;18.40;1.00;;;;;;10270792;28;84127;-50
2022/06/07 20:30:23;;;;;;;;;;;18.30;1.00;;;;;;10285695;28;83788;-47
2022/06/07 20:35:25;;;;;;;;;;;18.30;1.00;;;;;;10285410;28;83702;-56
2022/06/07 20:40:31;;;;;;;;;;;18.30;1.00;;;;;;10285175;28;84188;-50
2022/06/07 20:45:31;;;;;;;;;;;18.20;1.00;;;;;;10282527;28;84091;-53
2022/06/07 20:50:33;;;;;;;;;;;18.20;1.00;;;;;;10283507;28;83412;-46
2022/06/07 20:55:38;;;;;;;;;;;18.20;1.00;;;;;;10281204;28;84109;-48
2022/06/07 21:00:39;;;;;;;;;;;18.30;1.00;;;;;;10284219;28;83808;-50
2022/06/07 21:05:40;;;;;;;;;;;18.20;1.00;;;;;;10282198;28;84127;-48
2022/06/07 21:10:41;;;;;;;;;;;18.20;1.00;;;;;;10283629;28;84090;-48
2022/06/07 21:15:41;;;;;;;;;;;18.20;1.00;;;;;;10283275;28;84181;-48
2022/06/07 21:20:42;;;;;;;;;;;18.20;1.00;;;;;;10281456;28;84117;-49
2022/06/07 21:25:43;;;;;;;;;;;18.10;1.00;;;;;;10282680;28;84191;-49
2022/06/07 21:30:43;;;;;;;;;;;18.00;1.00;;;;;;10266750;28;84134;-49
2022/06/07 21:35:44;;;;;;;;;;;17.90;1.00;;;;;;10295231;28;86051;-49
2022/06/07 21:40:45;;;;;;;;;;;17.80;1.00;;;;;;10287943;28;84055;-48
2022/06/07 21:45:46;;;;;;;;;;;17.80;1.00;;;;;;10290130;28;83665;-51
2022/06/07 21:50:47;;;;;;;;;;;17.70;1.00;;;;;;10289714;28;83295;-48
2022/06/07 21:55:47;;;;;;;;;;;17.70;17.40;;;;;;10287748;28;84757;-49
2022/06/07 22:00:50;;;;;;;;;;;17.60;41.90;;;;;;10288912;28;84048;-47
2022/06/07 22:05:53;;;;;;;;;;;17.60;85.30;;;;;;10289407;28;83968;-52
2022/06/07 22:10:54;;;;;;;;;;;17.50;99.90;;;;;;10289955;28;84045;-50
2022/06/07 22:15:55;;;;;;;;;;;17.50;99.90;;;;;;10289203;28;83774;-50
2022/06/07 22:20:56;;;;;;;;;;;17.50;99.90;;;;;;10289337;28;84119;-49
2022/06/07 22:25:57;;;;;;;;;;;17.60;99.90;;;;;;10250721;28;83988;-51
2022/06/07 22:30:57;;;;;;;;;;;17.40;99.90;;;;;;10247946;28;84914;-48
2022/06/07 22:35:58;;;;;;;;;;;17.30;99.90;;;;;;10285787;28;83747;-47
2022/06/07 22:40:58;;;;;;;;;;;17.40;99.90;;;;;;10288415;28;84474;-52
2022/06/07 22:45:59;;;;;;;;;;;17.50;99.90;;;;;;10251552;28;83217;-49
2022/06/07 22:51:01;;;;;;;;;;;17.50;99.90;;;;;;10251699;28;83703;-50
2022/06/07 22:56:02;;;;;;;;;;;17.40;99.90;;;;;;10286055;28;83775;-49
2022/06/07 23:01:04;;;;;;;;;;;17.50;99.90;;;;;;10286313;28;83721;-47
2022/06/07 23:06:07;;;;;;;;;;;17.50;99.90;;;;;;10249892;28;83819;-48
2022/06/07 23:11:08;;;;;;;;;;;17.40;99.90;;;;;;10245511;28;84465;-47
2022/06/07 23:21:28;;;;;;;;;;;17.40;99.90;;;;;;10288471;28;83785;-49
2022/06/07 23:26:29;;;;;;;;;;;17.40;99.90;;;;;;10246144;28;84076;-52
2022/06/07 23:31:29;;;;;;;;;;;17.40;99.90;;;;;;10244459;28;83246;-52
2022/06/07 23:36:30;;;;;;;;;;;17.30;99.90;;;;;;10286737;28;84384;-49
2022/06/07 23:41:31;;;;;;;;;;;17.20;99.90;;;;;;10283482;28;85073;-49
2022/06/07 23:46:33;;;;;;;;;;;17.10;99.90;;;;;;10285917;28;84012;-49
2022/06/07 23:51:35;;;;;;;;;;;16.90;99.90;;;;;;10284952;28;84107;-49
2022/06/07 23:56:37;;;;;;;;;;;16.80;99.90;;;;;;10284375;28;83696;-51
